Time;durP1;ratioP1;P1;durP2;ratioP2;P2;SDS_P1;SDS_P2;PMS_P1;PMS_P2;Temp;Humidity;BMP_temperature;BMP_pressure;BME280_temperature;BME280_humidity;BME280_pressure;Samples;Min_cycle;Max_cycle;Signal;HPM_P1;HPM_P2
2022/08/23 00:01:41;;;;;;;5.10;2.50;;;;;;;;;;5080817;27;20042;-80
2022/08/23 00:04:12;;;;;;;4.07;2.10;;;;;;;;;;5080531;27;20035;-80
2022/08/23 00:06:38;;;;;;;3.75;2.47;;;;;;;;;;5097666;27;20039;-80
2022/08/23 00:09:04;;;;;;;3.83;2.40;;;;;;;;;;5097430;27;20027;-80
2022/08/23 00:11:33;;;;;;;5.90;2.60;;;;;;;;;;5097494;27;20035;-80
2022/08/23 00:14:01;;;;;;;3.60;2.25;;;;;;;;;;5097763;27;20172;-80
2022/08/23 00:16:26;;;;;;;4.38;2.65;;;;;;;;;;5082811;27;20038;-80
2022/08/23 00:18:52;;;;;;;7.07;2.25;;;;;;;;;;5099010;27;20038;-80
2022/08/23 00:21:17;;;;;;;4.68;2.10;;;;;;;;;;5082217;27;20049;-80
2022/08/23 00:23:42;;;;;;;3.83;2.20;;;;;;;;;;5082226;27;20031;-80
2022/08/23 00:26:08;;;;;;;3.88;2.40;;;;;;;;;;5082605;27;20110;-80
2022/08/23 00:28:33;;;;;;;4.88;2.40;;;;;;;;;;5062689;27;20512;-80
2022/08/23 00:30:59;;;;;;;4.82;2.10;;;;;;;;;;5096608;27;20027;-81
2022/08/23 00:33:24;;;;;;;4.43;2.20;;;;;;;;;;5079948;27;20504;-80
2022/08/23 00:35:50;;;;;;;3.33;1.63;;;;;;;;;;5080356;27;20411;-80
2022/08/23 00:38:16;;;;;;;3.10;1.35;;;;;;;;;;5080295;28;20548;-79
2022/08/23 00:40:49;;;;;;;4.55;2.50;;;;;;;;;;5097276;28;20381;-80
2022/08/23 00:48:46;;;;;;;4.45;1.98;;;;;;;;;;5113492;28;20039;-80
2022/08/23 00:51:27;;;;;;;4.10;2.28;;;;;;;;;;5080400;28;20054;-80
2022/08/23 00:53:55;;;;;;;4.50;2.05;;;;;;;;;;5083233;27;20027;-81
2022/08/23 00:56:21;;;;;;;5.00;2.25;;;;;;;;;;5084768;27;20039;-81
2022/08/23 00:58:47;;;;;;;3.50;2.20;;;;;;;;;;5084150;27;20125;-80
2022/08/23 01:01:12;;;;;;;4.85;2.38;;;;;;;;;;5101210;27;20114;-80
2022/08/23 01:03:39;;;;;;;3.15;1.70;;;;;;;;;;5101098;27;20027;-80
2022/08/23 01:06:09;;;;;;;4.78;2.60;;;;;;;;;;5101389;27;20035;-80
2022/08/23 01:08:35;;;;;;;4.88;2.67;;;;;;;;;;5084334;27;20039;-80
2022/08/23 01:11:14;;;;;;;4.68;2.08;;;;;;;;;;5101236;27;20092;-80
2022/08/23 01:14:12;;;;;;;5.13;1.95;;;;;;;;;;5101630;27;20046;-80
2022/08/23 01:16:49;;;;;;;4.47;1.90;;;;;;;;;;5094175;27;20039;-80
2022/08/23 01:19:24;;;;;;;3.88;2.17;;;;;;;;;;5100679;27;20046;-80
2022/08/23 01:22:05;;;;;;;3.05;1.65;;;;;;;;;;5099965;27;20042;-80
2022/08/23 01:24:33;;;;;;;3.42;1.88;;;;;;;;;;5100363;27;20130;-80
2022/08/23 01:26:59;;;;;;;3.80;2.10;;;;;;;;;;5101161;27;20031;-80
2022/08/23 01:29:24;;;;;;;3.33;1.70;;;;;;;;;;5100408;27;20035;-80
2022/08/23 01:31:50;;;;;;;3.28;1.90;;;;;;;;;;5083469;27;20409;-80
2022/08/23 01:34:17;;;;;;;3.63;2.20;;;;;;;;;;5100106;27;20063;-80
2022/08/23 01:36:43;;;;;;;3.15;2.08;;;;;;;;;;5083825;27;20468;-80
2022/08/23 01:39:08;;;;;;;3.15;2.10;;;;;;;;;;5100785;27;20039;-80
2022/08/23 01:41:37;;;;;;;3.67;1.80;;;;;;;;;;5100737;27;20031;-80
2022/08/23 01:44:04;;;;;;;3.25;1.70;;;;;;;;;;5101475;27;20035;-81
2022/08/23 01:46:30;;;;;;;4.20;2.38;;;;;;;;;;5100125;27;20048;-81
2022/08/23 01:48:57;;;;;;;3.95;2.20;;;;;;;;;;5100493;27;20404;-80
2022/08/23 01:51:22;;;;;;;4.35;1.83;;;;;;;;;;5083762;27;20066;-80
2022/08/23 01:53:48;;;;;;;3.70;1.95;;;;;;;;;;5082992;27;20428;-80
2022/08/23 01:56:14;;;;;;;2.88;1.75;;;;;;;;;;5083327;27;20041;-80
2022/08/23 01:58:39;;;;;;;3.15;1.70;;;;;;;;;;5099897;27;20035;-80
2022/08/23 02:01:05;;;;;;;3.67;1.95;;;;;;;;;;5100159;27;20039;-80
2022/08/23 02:03:31;;;;;;;2.80;1.88;;;;;;;;;;5116989;27;20041;-81
2022/08/23 02:05:57;;;;;;;5.75;2.00;;;;;;;;;;5098687;27;20031;-80
2022/08/23 02:11:11;;;;;;;3.58;1.98;;;;;;;;;;5105258;27;20035;-80
2022/08/23 02:13:37;;;;;;;4.60;2.10;;;;;;;;;;5100240;27;20035;-80
2022/08/23 02:16:02;;;;;;;3.80;2.35;;;;;;;;;;5114254;27;20076;-80
2022/08/23 02:18:28;;;;;;;4.20;2.28;;;;;;;;;;5082853;27;20420;-80
2022/08/23 02:20:53;;;;;;;4.90;2.45;;;;;;;;;;5099580;27;20027;-80
2022/08/23 02:23:19;;;;;;;4.07;2.40;;;;;;;;;;5082706;27;20088;-79
2022/08/23 02:25:44;;;;;;;3.83;2.40;;;;;;;;;;5066068;27;20443;-80
2022/08/23 02:28:10;;;;;;;5.32;2.90;;;;;;;;;;5116481;27;20519;-80
2022/08/23 02:30:36;;;;;;;4.65;3.03;;;;;;;;;;5116235;27;20029;-81
2022/08/23 02:33:01;;;;;;;4.43;2.20;;;;;;;;;;5099518;27;20420;-80
2022/08/23 02:35:27;;;;;;;3.88;2.25;;;;;;;;;;5099313;27;20385;-79
2022/08/23 02:37:52;;;;;;;4.05;2.92;;;;;;;;;;5082709;27;20039;-80
2022/08/23 02:40:18;;;;;;;5.00;2.47;;;;;;;;;;5082754;27;20041;-80
2022/08/23 02:42:46;;;;;;;5.05;2.63;;;;;;;;;;5099080;27;20027;-80
2022/08/23 02:45:12;;;;;;;4.15;2.60;;;;;;;;;;5082790;27;20401;-79
2022/08/23 02:47:37;;;;;;;6.07;3.22;;;;;;;;;;5082262;27;20070;-81
2022/08/23 02:50:07;;;;;;;3.95;2.33;;;;;;;;;;5099605;27;20115;-80
2022/08/23 02:52:33;;;;;;;9.73;2.65;;;;;;;;;;5099546;27;20043;-80
2022/08/23 02:54:58;;;;;;;6.15;3.40;;;;;;;;;;5082708;27;20043;-81
2022/08/23 02:57:24;;;;;;;4.30;2.72;;;;;;;;;;5098959;27;20125;-81
2022/08/23 02:59:51;;;;;;;5.50;2.78;;;;;;;;;;5082072;27;20146;-80
2022/08/23 03:02:17;;;;;;;5.10;3.00;;;;;;;;;;5098751;27;20493;-80
2022/08/23 03:04:42;;;;;;;5.15;3.53;;;;;;;;;;5098910;27;20035;-82
2022/08/23 03:07:08;;;;;;;5.18;3.15;;;;;;;;;;5115587;27;20046;-80
2022/08/23 03:09:33;;;;;;;5.50;2.63;;;;;;;;;;5101616;27;20046;-80
2022/08/23 03:11:59;;;;;;;4.72;2.97;;;;;;;;;;5101897;27;20023;-80
2022/08/23 03:14:26;;;;;;;5.40;2.70;;;;;;;;;;5098430;27;20031;-80
2022/08/23 03:16:51;;;;;;;5.47;3.10;;;;;;;;;;5065408;27;20038;-80
2022/08/23 03:19:18;;;;;;;7.18;3.13;;;;;;;;;;5081999;27;20036;-80
2022/08/23 03:21:43;;;;;;;5.13;2.47;;;;;;;;;;5098392;27;20102;-80
2022/08/23 03:24:09;;;;;;;4.53;3.05;;;;;;;;;;5081383;27;20160;-80
2022/08/23 03:26:35;;;;;;;4.22;2.60;;;;;;;;;;5064886;27;20027;-80
2022/08/23 03:29:00;;;;;;;5.93;2.88;;;;;;;;;;5064641;27;20038;-80
2022/08/23 03:31:26;;;;;;;6.05;2.95;;;;;;;;;;5081339;27;20457;-80
2022/08/23 03:33:51;;;;;;;4.05;2.63;;;;;;;;;;5081335;27;20039;-80
2022/08/23 03:36:18;;;;;;;4.25;2.70;;;;;;;;;;5081037;27;20039;-80
2022/08/23 03:38:44;;;;;;;4.90;2.47;;;;;;;;;;5081872;27;20027;-80
2022/08/23 03:41:10;;;;;;;4.47;2.53;;;;;;;;;;5064587;27;20038;-80
2022/08/23 03:43:35;;;;;;;4.70;2.38;;;;;;;;;;5098013;27;20023;-80
2022/08/23 03:46:01;;;;;;;6.10;2.92;;;;;;;;;;5081060;27;20035;-80
2022/08/23 03:48:26;;;;;;;3.83;2.13;;;;;;;;;;5081199;27;20055;-81
2022/08/23 03:50:52;;;;;;;6.05;2.72;;;;;;;;;;5064534;27;20413;-80
2022/08/23 03:53:17;;;;;;;4.35;2.88;;;;;;;;;;5080625;27;20401;-80
2022/08/23 03:55:43;;;;;;;3.40;2.25;;;;;;;;;;5064507;28;20062;-80
2022/08/23 03:58:09;;;;;;;4.55;2.83;;;;;;;;;;5063591;27;20117;-80
2022/08/23 04:00:34;;;;;;;4.18;2.10;;;;;;;;;;5080678;27;20031;-80
2022/08/23 04:03:00;;;;;;;5.10;2.17;;;;;;;;;;5079910;27;20489;-80
2022/08/23 04:05:25;;;;;;;4.85;2.35;;;;;;;;;;5097727;27;20055;-81
2022/08/23 04:07:51;;;;;;;3.05;1.83;;;;;;;;;;5098003;27;20091;-80
2022/08/23 04:10:19;;;;;;;4.55;2.28;;;;;;;;;;5097711;27;20039;-80
2022/08/23 04:12:45;;;;;;;4.57;2.38;;;;;;;;;;5098294;27;20553;-80
2022/08/23 04:15:11;;;;;;;4.75;1.90;;;;;;;;;;5080558;27;20031;-80
2022/08/23 04:17:36;;;;;;;4.03;2.08;;;;;;;;;;5097603;27;20031;-80
2022/08/23 04:20:03;;;;;;;4.28;1.90;;;;;;;;;;5080581;27;20091;-80
2022/08/23 04:22:29;;;;;;;2.92;1.70;;;;;;;;;;5080060;27;20527;-80
2022/08/23 04:24:55;;;;;;;8.23;2.38;;;;;;;;;;5097079;27;20045;-80
2022/08/23 04:27:21;;;;;;;3.58;1.75;;;;;;;;;;5063389;27;20407;-80
2022/08/23 04:29:46;;;;;;;3.38;2.00;;;;;;;;;;5080132;27;20059;-79
2022/08/23 04:32:13;;;;;;;4.13;2.00;;;;;;;;;;5079927;27;20027;-80
2022/08/23 04:34:39;;;;;;;4.50;2.15;;;;;;;;;;5097453;27;20057;-79
2022/08/23 04:37:04;;;;;;;4.88;2.42;;;;;;;;;;5076863;27;20035;-80
2022/08/23 04:42:16;;;;;;;5.25;1.92;;;;;;;;;;5081356;27;20041;-80
2022/08/23 04:42:18;;;;;;;3.13;1.83;;;;;;;;;;5115890;28;20063;-79
2022/08/23 04:44:43;;;;;;;6.13;2.17;;;;;;;;;;5080855;28;20042;-79
2022/08/23 04:47:09;;;;;;;3.30;2.00;;;;;;;;;;5063528;28;20031;-79
2022/08/23 04:49:34;;;;;;;4.35;2.15;;;;;;;;;;5080151;28;20070;-78
2022/08/23 04:52:00;;;;;;;4.18;2.03;;;;;;;;;;5079439;28;20484;-79
2022/08/23 04:54:25;;;;;;;3.50;1.58;;;;;;;;;;5086570;27;20043;-79
2022/08/23 04:56:51;;;;;;;3.55;2.17;;;;;;;;;;5100197;27;20405;-78
2022/08/23 04:59:16;;;;;;;3.40;1.73;;;;;;;;;;5116973;27;20087;-78
2022/08/23 05:01:42;;;;;;;3.88;2.03;;;;;;;;;;5100253;27;20031;-79
2022/08/23 05:04:07;;;;;;;4.00;2.38;;;;;;;;;;5116437;27;20442;-78
2022/08/23 05:06:33;;;;;;;4.07;1.80;;;;;;;;;;5093695;28;20047;-79
2022/08/23 05:08:59;;;;;;;4.88;1.75;;;;;;;;;;5077432;28;20062;-78
2022/08/23 05:11:24;;;;;;;4.35;2.20;;;;;;;;;;5096504;28;20115;-80
2022/08/23 05:13:49;;;;;;;4.32;2.17;;;;;;;;;;5063492;27;20055;-79
2022/08/23 05:16:15;;;;;;;4.53;1.90;;;;;;;;;;5100216;27;20054;-81
2022/08/23 05:18:41;;;;;;;4.78;1.77;;;;;;;;;;5100568;27;20062;-81
2022/08/23 05:21:06;;;;;;;5.82;1.85;;;;;;;;;;5083667;27;20373;-80
2022/08/23 05:23:32;;;;;;;9.32;2.00;;;;;;;;;;5083347;27;20035;-81
2022/08/23 05:25:57;;;;;;;5.65;2.00;;;;;;;;;;5099511;27;20034;-80
2022/08/23 05:28:33;;;;;;;5.68;1.75;;;;;;;;;;5099807;27;20116;-81
2022/08/23 05:31:05;;;;;;;10.38;2.13;;;;;;;;;;5102260;27;20039;-84
2022/08/23 05:33:42;;;;;;;7.53;2.65;;;;;;;;;;5120101;27;20034;-85
2022/08/23 05:36:17;;;;;;;10.63;3.13;;;;;;;;;;5106533;27;20042;-84
2022/08/23 05:38:42;;;;;;;7.10;2.70;;;;;;;;;;5083452;27;20023;-84
2022/08/23 05:41:08;;;;;;;7.22;2.45;;;;;;;;;;5087287;27;20118;-82
2022/08/23 05:43:34;;;;;;;4.93;2.08;;;;;;;;;;5103674;27;20031;-83
2022/08/23 05:46:05;;;;;;;7.43;2.55;;;;;;;;;;5086797;27;20031;-83
2022/08/23 05:48:32;;;;;;;9.70;1.90;;;;;;;;;;5087397;27;20027;-82
2022/08/23 05:51:10;;;;;;;4.18;2.00;;;;;;;;;;5104217;27;20031;-83
2022/08/23 05:53:37;;;;;;;6.78;2.38;;;;;;;;;;5104078;27;20037;-83
2022/08/23 05:56:20;;;;;;;6.38;2.03;;;;;;;;;;5103832;27;20037;-83
2022/08/23 05:58:46;;;;;;;7.60;2.50;;;;;;;;;;5089000;27;20031;-83
2022/08/23 06:01:11;;;;;;;4.38;1.95;;;;;;;;;;5104474;27;20073;-84
2022/08/23 06:03:37;;;;;;;4.28;2.00;;;;;;;;;;5087045;27;20080;-84
2022/08/23 06:06:03;;;;;;;8.52;2.50;;;;;;;;;;5103694;27;20031;-83
2022/08/23 06:08:28;;;;;;;10.43;2.45;;;;;;;;;;5082802;27;20031;-78
2022/08/23 06:11:05;;;;;;;7.28;2.42;;;;;;;;;;5066012;27;20037;-79
2022/08/23 06:13:30;;;;;;;10.40;2.55;;;;;;;;;;5066558;27;21010;-79
2022/08/23 06:15:56;;;;;;;7.72;2.60;;;;;;;;;;5083105;27;20034;-80
2022/08/23 06:18:22;;;;;;;6.43;1.95;;;;;;;;;;5083282;27;20489;-79
2022/08/23 06:20:47;;;;;;;5.25;2.22;;;;;;;;;;5099874;27;20035;-80
2022/08/23 06:23:13;;;;;;;5.00;1.90;;;;;;;;;;5082348;27;20043;-85
2022/08/23 06:25:39;;;;;;;7.38;2.42;;;;;;;;;;5065890;27;20073;-83
2022/08/23 06:28:05;;;;;;;5.13;2.90;;;;;;;;;;5082251;27;20405;-82
2022/08/23 06:30:30;;;;;;;4.72;2.03;;;;;;;;;;5082404;27;20046;-83
2022/08/23 06:32:56;;;;;;;4.30;1.88;;;;;;;;;;5099643;27;20439;-83
2022/08/23 06:35:22;;;;;;;6.28;1.80;;;;;;;;;;5065693;27;20530;-83
2022/08/23 06:37:48;;;;;;;8.65;1.88;;;;;;;;;;5065648;27;20039;-85
2022/08/23 06:40:13;;;;;;;6.75;1.55;;;;;;;;;;5082506;27;20382;-85
2022/08/23 06:42:38;;;;;;;4.40;1.85;;;;;;;;;;5082651;27;20412;-85
2022/08/23 06:45:05;;;;;;;5.38;1.92;;;;;;;;;;5081512;27;20039;-84
2022/08/23 06:47:30;;;;;;;4.82;2.00;;;;;;;;;;5082871;27;20031;-85
2022/08/23 06:49:56;;;;;;;7.38;2.10;;;;;;;;;;5082462;27;20046;-85
2022/08/23 06:52:21;;;;;;;3.50;1.70;;;;;;;;;;5098227;27;20046;-84
2022/08/23 06:54:47;;;;;;;3.92;1.67;;;;;;;;;;5099141;27;20424;-85
2022/08/23 06:57:13;;;;;;;2.97;1.40;;;;;;;;;;5082478;27;20485;-85
2022/08/23 06:59:38;;;;;;;3.60;1.50;;;;;;;;;;5098954;27;20037;-85
2022/08/23 07:02:05;;;;;;;3.92;2.08;;;;;;;;;;5082246;27;20066;-85
2022/08/23 07:04:35;;;;;;;4.38;1.60;;;;;;;;;;5081998;27;20075;-85
2022/08/23 07:07:00;;;;;;;3.53;1.05;;;;;;;;;;5082691;27;20042;-85
2022/08/23 07:09:26;;;;;;;4.47;1.48;;;;;;;;;;5102497;27;20492;-85
2022/08/23 07:11:52;;;;;;;3.33;1.55;;;;;;;;;;5102595;27;20489;-84
2022/08/23 07:14:19;;;;;;;4.35;1.40;;;;;;;;;;5085262;27;20031;-84
2022/08/23 07:16:58;;;;;;;3.60;1.77;;;;;;;;;;5102020;27;20027;-85
2022/08/23 07:19:26;;;;;;;3.35;1.50;;;;;;;;;;5102570;27;20031;-85
2022/08/23 07:21:51;;;;;;;3.05;1.33;;;;;;;;;;5101909;27;20049;-85
2022/08/23 07:24:17;;;;;;;2.78;1.40;;;;;;;;;;5102078;27;20035;-85
2022/08/23 07:26:43;;;;;;;3.85;1.48;;;;;;;;;;5101925;27;20071;-85
2022/08/23 07:29:08;;;;;;;2.00;1.20;;;;;;;;;;5085169;27;20163;-85
2022/08/23 07:31:37;;;;;;;3.15;1.17;;;;;;;;;;5101835;27;20420;-85
2022/08/23 07:34:03;;;;;;;3.20;1.58;;;;;;;;;;5102564;27;20051;-85
2022/08/23 07:36:29;;;;;;;4.78;1.30;;;;;;;;;;5084799;27;20042;-85
2022/08/23 07:38:54;;;;;;;4.80;1.33;;;;;;;;;;5101662;27;20072;-85
2022/08/23 07:41:22;;;;;;;5.35;1.92;;;;;;;;;;5084552;27;20503;-85
2022/08/23 07:43:48;;;;;;;4.50;1.50;;;;;;;;;;5085152;27;20034;-85
2022/08/23 07:46:13;;;;;;;4.43;1.65;;;;;;;;;;5118410;27;20035;-85
2022/08/23 07:48:39;;;;;;;2.95;1.55;;;;;;;;;;5101854;27;20120;-85
2022/08/23 07:51:06;;;;;;;4.20;1.65;;;;;;;;;;5101902;27;20476;-85
2022/08/23 07:53:32;;;;;;;2.08;1.10;;;;;;;;;;5101469;27;20023;-85
2022/08/23 07:55:58;;;;;;;3.75;1.50;;;;;;;;;;5118715;27;20042;-85
2022/08/23 07:58:23;;;;;;;4.82;1.63;;;;;;;;;;5101134;27;20033;-85
2022/08/23 08:00:50;;;;;;;3.35;1.42;;;;;;;;;;5084676;27;20556;-85
2022/08/23 08:03:16;;;;;;;4.63;1.83;;;;;;;;;;5083602;27;20429;-85
2022/08/23 08:05:41;;;;;;;3.42;1.25;;;;;;;;;;5101345;27;20484;-85
2022/08/23 08:08:06;;;;;;;4.10;1.33;;;;;;;;;;5118361;27;20034;-86
2022/08/23 08:10:34;;;;;;;4.57;1.40;;;;;;;;;;5101334;27;20027;-85
2022/08/23 08:12:59;;;;;;;4.90;1.10;;;;;;;;;;5084711;27;20030;-85
2022/08/23 08:15:25;;;;;;;4.35;1.40;;;;;;;;;;5084599;27;20078;-86
2022/08/23 08:17:50;;;;;;;4.78;1.38;;;;;;;;;;5100896;27;20042;-86
2022/08/23 08:20:20;;;;;;;3.40;1.40;;;;;;;;;;5084457;27;20073;-85
2022/08/23 08:22:46;;;;;;;3.92;1.17;;;;;;;;;;5118108;27;20027;-86
2022/08/23 08:25:11;;;;;;;3.33;1.63;;;;;;;;;;5118399;27;20070;-86
2022/08/23 08:27:37;;;;;;;5.47;1.35;;;;;;;;;;5100936;27;20123;-85
2022/08/23 08:30:04;;;;;;;5.93;1.67;;;;;;;;;;5084565;27;20399;-86
2022/08/23 08:32:29;;;;;;;4.05;1.60;;;;;;;;;;5100589;27;20027;-86
2022/08/23 08:34:55;;;;;;;4.78;1.38;;;;;;;;;;5101026;27;20042;-86
2022/08/23 08:37:20;;;;;;;3.78;1.52;;;;;;;;;;5101218;27;20425;-85
2022/08/23 08:39:45;;;;;;;3.67;1.42;;;;;;;;;;5101193;27;20042;-85
2022/08/23 08:42:11;;;;;;;4.85;2.10;;;;;;;;;;5101009;27;20488;-86
2022/08/23 08:44:40;;;;;;;3.90;1.50;;;;;;;;;;5117632;27;20034;-86
2022/08/23 08:47:26;;;;;;;5.13;1.55;;;;;;;;;;5100450;27;20030;-86
2022/08/23 08:50:08;;;;;;;2.45;1.40;;;;;;;;;;5099631;27;20050;-86
2022/08/23 08:52:42;;;;;;;5.00;2.28;;;;;;;;;;5084566;27;20030;-86
2022/08/23 08:55:21;;;;;;;3.65;1.50;;;;;;;;;;5101404;27;20598;-86
2022/08/23 08:57:49;;;;;;;4.57;1.48;;;;;;;;;;5084168;27;20087;-85
2022/08/23 09:00:24;;;;;;;3.05;1.30;;;;;;;;;;5084334;27;20080;-86
2022/08/23 09:02:49;;;;;;;4.13;1.40;;;;;;;;;;5083899;27;20026;-87
2022/08/23 09:05:18;;;;;;;3.75;1.45;;;;;;;;;;5100526;27;20062;-86
2022/08/23 09:08:12;;;;;;;4.07;1.50;;;;;;;;;;5083461;27;20563;-86
2022/08/23 09:10:50;;;;;;;4.00;1.45;;;;;;;;;;5117554;27;20027;-86
2022/08/23 09:13:46;;;;;;;5.93;1.45;;;;;;;;;;5100853;27;20039;-85
2022/08/23 09:16:20;;;;;;;2.85;1.15;;;;;;;;;;5104467;27;20031;-85
2022/08/23 09:18:46;;;;;;;4.28;1.23;;;;;;;;;;5138978;27;20087;-86
2022/08/23 09:21:11;;;;;;;2.45;1.40;;;;;;;;;;5104612;27;20030;-86
2022/08/23 09:23:45;;;;;;;3.38;1.30;;;;;;;;;;5104135;27;20043;-86
2022/08/23 09:26:29;;;;;;;4.75;1.65;;;;;;;;;;5121964;27;20031;-85
2022/08/23 09:28:59;;;;;;;2.75;0.93;;;;;;;;;;5087689;27;20041;-86
2022/08/23 09:31:42;;;;;;;3.55;1.20;;;;;;;;;;5121591;27;20079;-86
2022/08/23 09:34:19;;;;;;;2.88;1.23;;;;;;;;;;5087446;27;20135;-86
2022/08/23 09:36:45;;;;;;;2.53;1.02;;;;;;;;;;5106098;27;20071;-86
2022/08/23 09:39:30;;;;;;;2.03;0.95;;;;;;;;;;5087380;27;20174;-86
2022/08/23 09:41:56;;;;;;;3.33;1.02;;;;;;;;;;5104366;27;20537;-86
2022/08/23 09:44:36;;;;;;;2.88;1.30;;;;;;;;;;5087189;27;20038;-86
2022/08/23 09:47:05;;;;;;;3.45;0.90;;;;;;;;;;5087636;27;20037;-86
2022/08/23 09:49:31;;;;;;;5.30;1.42;;;;;;;;;;5104164;27;20037;-86
2022/08/23 09:52:08;;;;;;;4.57;1.13;;;;;;;;;;5104336;27;20449;-86
2022/08/23 09:54:34;;;;;;;3.30;1.02;;;;;;;;;;5105126;27;20034;-86
2022/08/23 09:57:04;;;;;;;2.25;1.20;;;;;;;;;;5087381;27;20369;-86
2022/08/23 09:59:40;;;;;;;2.15;0.93;;;;;;;;;;5103656;27;20041;-86
2022/08/23 10:02:16;;;;;;;2.78;0.75;;;;;;;;;;5105233;27;20146;-86
2022/08/23 10:04:45;;;;;;;4.25;1.60;;;;;;;;;;5103860;27;20070;-86
2022/08/23 10:07:40;;;;;;;2.28;0.80;;;;;;;;;;5087286;27;20034;-87
2022/08/23 10:10:15;;;;;;;2.40;0.88;;;;;;;;;;5103752;27;20027;-86
2022/08/23 10:12:41;;;;;;;2.22;1.00;;;;;;;;;;5104064;27;20511;-86
2022/08/23 10:15:08;;;;;;;1.67;0.80;;;;;;;;;;5086491;27;20027;-86
2022/08/23 10:17:39;;;;;;;2.10;0.90;;;;;;;;;;5104305;27;20026;-87
2022/08/23 10:20:28;;;;;;;2.57;1.03;;;;;;;;;;5103646;27;20035;-87
2022/08/23 10:23:14;;;;;;;2.83;1.00;;;;;;;;;;5103996;27;20064;-87
2022/08/23 10:25:42;;;;;;;2.28;0.80;;;;;;;;;;5119709;27;20086;-86
2022/08/23 10:31:23;;;;;;;3.08;0.70;;;;;;;;;;5137128;27;20496;-86
2022/08/23 10:34:18;;;;;;;1.65;0.85;;;;;;;;;;5103554;27;20523;-88
2022/08/23 10:36:53;;;;;;;4.47;0.95;;;;;;;;;;5089670;27;20649;-88
2022/08/23 10:39:30;;;;;;;1.85;0.70;;;;;;;;;;5122672;27;20568;-88
2022/08/23 10:42:10;;;;;;;5.10;1.08;;;;;;;;;;5087153;27;20491;-87
2022/08/23 10:44:57;;;;;;;4.38;0.90;;;;;;;;;;5087299;27;20086;-88
2022/08/23 10:47:37;;;;;;;4.25;1.60;;;;;;;;;;5104111;27;20090;-88
2022/08/23 10:50:06;;;;;;;3.30;1.30;;;;;;;;;;5103774;27;20031;-87
2022/08/23 10:52:35;;;;;;;5.75;1.50;;;;;;;;;;5120440;27;20045;-88
2022/08/23 10:55:15;;;;;;;4.00;1.58;;;;;;;;;;5087948;27;20065;-86
2022/08/23 10:57:44;;;;;;;6.88;2.05;;;;;;;;;;5091188;27;20030;-85
2022/08/23 11:00:16;;;;;;;3.70;1.48;;;;;;;;;;5103948;27;20105;-89
2022/08/23 11:03:02;;;;;;;5.63;1.52;;;;;;;;;;5086948;27;20056;-87
2022/08/23 11:05:29;;;;;;;3.30;1.17;;;;;;;;;;5120514;27;20023;-87
2022/08/23 11:08:11;;;;;;;4.43;1.00;;;;;;;;;;5103350;27;20027;-87
2022/08/23 11:10:36;;;;;;;5.70;1.23;;;;;;;;;;5102508;27;20074;-87
2022/08/23 11:13:14;;;;;;;5.53;0.77;;;;;;;;;;5118796;27;20085;-87
2022/08/23 11:16:14;;;;;;;3.63;1.10;;;;;;;;;;5136621;27;20034;-88
2022/08/23 11:18:47;;;;;;;5.15;1.17;;;;;;;;;;5102522;27;20043;-88
2022/08/23 11:21:15;;;;;;;2.45;0.90;;;;;;;;;;5085641;27;20035;-87
2022/08/23 11:23:48;;;;;;;4.20;0.60;;;;;;;;;;5119157;27;20522;-86
2022/08/23 11:26:26;;;;;;;5.22;0.70;;;;;;;;;;5119418;27;20026;-87
2022/08/23 11:28:55;;;;;;;2.58;0.73;;;;;;;;;;5119362;27;20092;-87
2022/08/23 11:31:33;;;;;;;2.53;0.75;;;;;;;;;;5086539;27;20061;-88
2022/08/23 11:34:08;;;;;;;2.95;0.70;;;;;;;;;;5087457;27;20504;-86
2022/08/23 11:36:33;;;;;;;2.75;1.17;;;;;;;;;;5086342;27;20396;-88
2022/08/23 11:39:01;;;;;;;3.85;0.95;;;;;;;;;;5102619;27;20038;-87
2022/08/23 11:41:28;;;;;;;3.67;0.95;;;;;;;;;;5085638;27;20034;-90
2022/08/23 11:44:03;;;;;;;2.22;0.77;;;;;;;;;;5085456;27;20496;-88
2022/08/23 11:46:57;;;;;;;2.88;0.55;;;;;;;;;;5119523;27;20107;-88
2022/08/23 11:49:28;;;;;;;3.67;1.13;;;;;;;;;;5103122;27;20072;-88
2022/08/23 11:52:19;;;;;;;3.75;1.35;;;;;;;;;;5119194;27;20034;-87
2022/08/23 11:55:26;;;;;;;2.60;0.68;;;;;;;;;;5119628;27;20035;-87
2022/08/23 11:57:54;;;;;;;3.72;0.90;;;;;;;;;;5017686;28;20040;-88
2022/08/23 12:00:23;;;;;;;3.22;1.00;;;;;;;;;;5103705;27;20035;-89
2022/08/23 12:03:25;;;;;;;1.88;0.88;;;;;;;;;;5085520;27;20041;-87
2022/08/23 12:05:50;;;;;;;;;;;;;;;;;;5058513;28;20044;-87
2022/08/23 12:08:19;;;;;;;8.43;1.37;;;;;;;;;;5110394;27;19917;-88
2022/08/23 12:10:45;;;;;;;4.28;1.05;;;;;;;;;;5118996;27;20383;-88
2022/08/23 12:13:19;;;;;;;4.00;0.90;;;;;;;;;;5118422;27;20544;-88
2022/08/23 12:16:13;;;;;;;2.28;0.88;;;;;;;;;;5119087;27;20059;-88
2022/08/23 12:18:47;;;;;;;4.25;1.20;;;;;;;;;;5118833;27;20100;-87
2022/08/23 12:21:33;;;;;;;2.30;1.02;;;;;;;;;;5102791;27;20156;-87
2022/08/23 12:24:02;;;;;;;4.53;1.00;;;;;;;;;;5101738;27;20070;-87
2022/08/23 12:26:33;;;;;;;3.42;1.27;;;;;;;;;;5084752;27;20061;-86
2022/08/23 12:29:21;;;;;;;3.15;0.88;;;;;;;;;;5118198;27;20037;-88
2022/08/23 12:32:24;;;;;;;3.08;1.13;;;;;;;;;;5085467;27;20496;-86
2022/08/23 12:35:08;;;;;;;4.10;0.98;;;;;;;;;;5105195;27;20492;-87
2022/08/23 12:37:42;;;;;;;4.47;1.10;;;;;;;;;;5118795;27;20072;-89
2022/08/23 12:40:14;;;;;;;4.60;0.90;;;;;;;;;;5085003;27;20030;-88
2022/08/23 12:42:40;;;;;;;4.82;1.08;;;;;;;;;;5101614;27;20094;-88
2022/08/23 12:45:15;;;;;;;2.80;1.02;;;;;;;;;;5101848;27;20030;-89
2022/08/23 12:47:42;;;;;;;4.43;1.50;;;;;;;;;;5101510;27;20042;-90
2022/08/23 12:50:20;;;;;;;3.05;0.60;;;;;;;;;;5084203;27;20026;-90
2022/08/23 12:52:55;;;;;;;3.67;0.95;;;;;;;;;;5085111;27;20031;-88
2022/08/23 12:55:20;;;;;;;2.72;0.80;;;;;;;;;;5084834;27;20038;-85
2022/08/23 12:57:53;;;;;;;2.80;0.82;;;;;;;;;;5101141;27;20031;-88
2022/08/23 13:00:22;;;;;;;4.75;0.75;;;;;;;;;;5085468;27;20066;-85
2022/08/23 13:03:01;;;;;;;4.90;1.30;;;;;;;;;;5084834;27;20034;-87
2022/08/23 13:05:45;;;;;;;2.28;0.75;;;;;;;;;;5102784;27;20031;-88
2022/08/23 13:08:19;;;;;;;2.67;0.90;;;;;;;;;;5101375;27;20039;-86
2022/08/23 13:10:45;;;;;;;4.25;0.82;;;;;;;;;;5085250;27;20042;-87
2022/08/23 13:13:11;;;;;;;1.92;0.60;;;;;;;;;;5084470;27;20027;-87
2022/08/23 13:16:00;;;;;;;2.95;0.82;;;;;;;;;;5118258;27;20042;-86
2022/08/23 13:18:31;;;;;;;2.80;0.68;;;;;;;;;;5118452;27;20572;-88
2022/08/23 13:21:16;;;;;;;2.88;1.33;;;;;;;;;;5085226;27;20493;-87
2022/08/23 13:23:41;;;;;;;4.68;0.95;;;;;;;;;;5117581;27;20396;-87
2022/08/23 13:26:56;;;;;;;2.70;0.60;;;;;;;;;;5097418;28;20035;-87
2022/08/23 13:29:21;;;;;;;2.47;0.82;;;;;;;;;;5079450;28;20658;-88
2022/08/23 13:32:01;;;;;;;3.25;0.80;;;;;;;;;;5080861;28;20114;-87
2022/08/23 13:34:35;;;;;;;1.38;0.60;;;;;;;;;;5081077;28;20405;-86
2022/08/23 13:37:02;;;;;;;6.82;0.90;;;;;;;;;;5080795;28;20031;-87
2022/08/23 13:39:29;;;;;;;4.50;1.08;;;;;;;;;;5081479;28;20114;-88
2022/08/23 13:41:54;;;;;;;3.25;0.70;;;;;;;;;;5064455;28;20063;-89
2022/08/23 13:44:20;;;;;;;2.03;0.60;;;;;;;;;;5063609;28;20038;-89
2022/08/23 13:46:46;;;;;;;4.63;1.13;;;;;;;;;;5064205;28;20032;-88
2022/08/23 13:49:14;;;;;;;3.10;0.70;;;;;;;;;;5064378;28;20035;-89
2022/08/23 13:51:41;;;;;;;3.88;0.90;;;;;;;;;;5097974;28;20103;-88
2022/08/23 13:54:08;;;;;;;2.35;0.77;;;;;;;;;;5064210;28;20121;-88
2022/08/23 13:56:36;;;;;;;1.75;0.60;;;;;;;;;;5080956;28;20027;-89
2022/08/23 13:59:26;;;;;;;4.13;1.20;;;;;;;;;;5080552;28;20035;-89
2022/08/23 14:01:51;;;;;;;2.22;0.70;;;;;;;;;;5091340;27;20051;-88
2022/08/23 14:04:17;;;;;;;1.55;0.50;;;;;;;;;;5117682;27;20031;-88
2022/08/23 14:06:44;;;;;;;3.83;0.77;;;;;;;;;;5084309;27;20031;-88
2022/08/23 14:09:09;;;;;;;1.45;0.60;;;;;;;;;;5103063;27;20023;-88
2022/08/23 14:11:35;;;;;;;2.47;0.80;;;;;;;;;;5087854;27;20035;-89
2022/08/23 14:14:00;;;;;;;1.45;0.43;;;;;;;;;;5087639;27;20034;-89
2022/08/23 14:16:33;;;;;;;1.67;0.43;;;;;;;;;;5087335;27;20492;-88
2022/08/23 14:18:58;;;;;;;1.40;0.45;;;;;;;;;;5104673;27;20056;-88
2022/08/23 14:21:24;;;;;;;2.33;0.60;;;;;;;;;;5087120;27;20030;-89
2022/08/23 14:23:49;;;;;;;3.08;0.73;;;;;;;;;;5104031;27;20037;-88
2022/08/23 14:26:17;;;;;;;1.60;0.50;;;;;;;;;;5087255;27;20052;-88
2022/08/23 14:28:42;;;;;;;2.80;0.43;;;;;;;;;;5104134;27;20041;-88
2022/08/23 14:31:08;;;;;;;4.20;0.57;;;;;;;;;;5103954;27;20114;-89
2022/08/23 14:33:33;;;;;;;2.42;0.82;;;;;;;;;;5087332;27;20071;-88
2022/08/23 14:35:58;;;;;;;1.92;0.68;;;;;;;;;;5103879;27;20095;-89
2022/08/23 14:38:24;;;;;;;2.55;0.55;;;;;;;;;;5088892;27;20075;-88
2022/08/23 14:40:54;;;;;;;2.20;0.35;;;;;;;;;;5086703;27;20037;-89
2022/08/23 14:43:20;;;;;;;2.88;0.88;;;;;;;;;;5083391;27;20035;-88
2022/08/23 14:45:45;;;;;;;5.90;0.60;;;;;;;;;;5100663;27;20038;-89
2022/08/23 14:48:12;;;;;;;3.33;0.80;;;;;;;;;;5083883;27;20088;-89
2022/08/23 14:50:38;;;;;;;2.40;0.93;;;;;;;;;;5083235;27;20039;-88
2022/08/23 14:53:04;;;;;;;3.92;0.77;;;;;;;;;;5066629;27;20121;-88
2022/08/23 14:55:29;;;;;;;1.08;0.50;;;;;;;;;;5090951;27;20602;-88
2022/08/23 14:57:54;;;;;;;1.10;0.50;;;;;;;;;;5086268;27;20437;-88
2022/08/23 15:00:20;;;;;;;3.08;0.60;;;;;;;;;;5103293;27;20119;-88
2022/08/23 15:02:46;;;;;;;2.30;0.65;;;;;;;;;;5086937;27;20027;-88
2022/08/23 15:05:12;;;;;;;2.25;0.75;;;;;;;;;;5086893;27;20550;-89
2022/08/23 15:07:37;;;;;;;2.28;0.65;;;;;;;;;;5103095;27;20110;-88
2022/08/23 15:10:04;;;;;;;1.95;0.50;;;;;;;;;;5086879;27;20485;-88